Time;durP1;ratioP1;P1;durP2;ratioP2;P2;SDS_P1;SDS_P2;PMS_P1;PMS_P2;Temp;Humidity;BMP_temperature;BMP_pressure;BME280_temperature;BME280_humidity;BME280_pressure;Samples;Min_cycle;Max_cycle;Signal;HPM_P1;HPM_P2
2022/09/03 00:00:17;;;;;;;3.20;2.75;;;;;;;17.93;61.80;93855.97;4965791;28;20491;-78
2022/09/03 00:02:46;;;;;;;4.18;2.35;;;;;;;17.85;62.38;93862.31;4975432;28;20046;-77
2022/09/03 00:05:47;;;;;;;3.55;2.20;;;;;;;17.85;62.14;93861.53;4976429;28;20519;-80
2022/09/03 00:08:30;;;;;;;3.42;2.13;;;;;;;17.51;62.32;93841.69;4947531;28;20574;-78
2022/09/03 00:11:16;;;;;;;3.78;2.67;;;;;;;17.73;62.10;93859.81;4975656;28;20026;-79
2022/09/03 00:13:47;;;;;;;4.43;2.65;;;;;;;17.74;62.47;93871.34;4978375;28;20493;-80
2022/09/03 00:16:16;;;;;;;2.95;2.30;;;;;;;17.56;62.39;93838.72;4975302;28;20023;-78
2022/09/03 00:19:01;;;;;;;3.95;2.47;;;;;;;17.79;62.39;93863.78;4973466;28;20030;-79
2022/09/03 00:21:36;;;;;;;5.05;2.85;;;;;;;17.87;62.46;93865.44;4969888;28;20066;-79
2022/09/03 00:24:08;;;;;;;3.47;2.63;;;;;;;17.60;61.96;93799.22;4960544;28;20853;-79
2022/09/03 00:26:36;;;;;;;3.50;2.58;;;;;;;17.91;61.97;93846.66;4974952;28;20081;-80
2022/09/03 00:29:15;;;;;;;6.32;2.60;;;;;;;17.82;61.73;93817.31;4970966;28;20084;-80
2022/09/03 00:31:46;;;;;;;3.97;2.80;;;;;;;18.03;61.12;93836.53;4971106;28;20058;-81
2022/09/03 00:34:24;;;;;;;3.53;2.40;;;;;;;18.04;60.65;93848.84;4973343;28;20498;-79
2022/09/03 00:36:50;;;;;;;4.57;2.88;;;;;;;17.75;60.78;93827.94;4975838;28;20057;-81
2022/09/03 00:39:18;;;;;;;3.80;2.50;;;;;;;17.85;61.13;93856.16;4971637;28;21412;-80
2022/09/03 00:42:22;;;;;;;3.22;2.85;;;;;;;17.79;61.71;93849.53;4972523;28;20728;-81
2022/09/03 00:45:06;;;;;;;8.65;3.22;;;;;;;17.76;61.74;93853.69;4955275;28;20034;-79
2022/09/03 00:48:17;;;;;;;3.90;2.55;;;;;;;17.63;62.28;93844.25;4972380;28;20177;-79
2022/09/03 00:51:24;;;;;;;4.15;2.97;;;;;;;17.74;62.39;93858.69;4972907;28;20053;-78
2022/09/03 00:54:13;;;;;;;5.90;4.35;;;;;;;17.65;62.66;93868.84;4973186;28;20085;-80
2022/09/03 00:56:50;;;;;;;3.55;2.72;;;;;;;17.73;62.48;93864.41;4956119;28;20027;-79
2022/09/03 00:59:28;;;;;;;5.57;3.22;;;;;;;17.85;62.01;93865.00;4955012;28;20054;-79
2022/09/03 01:02:25;;;;;;;5.97;3.95;;;;;;;17.73;61.90;93838.28;4970854;28;20014;-80
2022/09/03 01:05:01;;;;;;;4.55;2.70;;;;;;;17.95;62.00;93861.75;4954341;28;20026;-80
2022/09/03 01:07:30;;;;;;;6.60;3.33;;;;;;;17.85;62.13;93861.53;4970984;28;20041;-79
2022/09/03 01:10:11;;;;;;;4.10;2.72;;;;;;;17.73;62.33;93865.19;4973312;28;20030;-79
2022/09/03 01:12:51;;;;;;;3.63;2.58;;;;;;;17.55;62.33;93853.31;4970797;28;20077;-79
2022/09/03 01:15:27;;;;;;;5.90;4.03;;;;;;;17.15;62.24;93811.47;4963435;28;20027;-79
2022/09/03 01:18:05;;;;;;;4.40;3.25;;;;;;;17.58;62.18;93863.34;4971437;28;20034;-79
2022/09/03 01:20:47;;;;;;;4.45;3.13;;;;;;;17.47;62.30;93847.03;4970403;28;20118;-79
2022/09/03 01:23:13;;;;;;;6.18;3.38;;;;;;;17.63;62.09;93871.13;4970790;28;20074;-80
2022/09/03 01:25:57;;;;;;;3.72;2.70;;;;;;;17.48;61.96;93872.00;4971285;28;20030;-80
2022/09/03 01:28:31;;;;;;;4.28;3.33;;;;;;;17.46;62.23;93871.56;4971875;28;20117;-79
2022/09/03 01:31:00;;;;;;;5.45;3.65;;;;;;;17.35;62.42;93876.75;4970054;28;20033;-80
2022/09/03 01:33:46;;;;;;;3.67;2.25;;;;;;;17.43;62.61;93888.41;4970579;28;20566;-80
2022/09/03 01:36:29;;;;;;;4.97;3.45;;;;;;;17.33;62.62;93888.97;4971227;28;20034;-79
2022/09/03 01:39:03;;;;;;;4.38;3.00;;;;;;;17.26;62.73;93889.59;4973257;28;20081;-80
2022/09/03 01:44:55;;;;;;;3.63;2.78;;;;;;;17.32;62.77;93893.56;4958434;28;20090;-79
2022/09/03 01:47:39;;;;;;;4.55;2.83;;;;;;;17.43;62.50;93883.03;4971534;28;20050;-80
2022/09/03 01:50:17;;;;;;;6.40;3.03;;;;;;;17.27;62.89;93875.03;4969628;28;20505;-80
2022/09/03 01:52:51;;;;;;;5.25;2.70;;;;;;;17.18;63.03;93839.53;4970674;28;20375;-78
2022/09/03 01:55:31;;;;;;;3.10;2.20;;;;;;;17.07;63.18;93876.13;4970412;28;20042;-79
2022/09/03 01:57:59;;;;;;;4.13;2.33;;;;;;;16.94;63.78;93867.41;4970872;28;20033;-80
2022/09/03 02:00:26;;;;;;;4.50;2.55;;;;;;;16.92;63.62;93866.19;4970608;28;20037;-79
2022/09/03 02:02:52;;;;;;;3.38;2.53;;;;;;;16.82;63.49;93843.34;4971451;28;20620;-78
2022/09/03 02:05:28;;;;;;;4.35;2.88;;;;;;;17.16;63.27;93874.03;4970368;28;20033;-79
2022/09/03 02:08:03;;;;;;;4.40;2.63;;;;;;;16.98;62.45;93841.41;4973563;28;20018;-78
2022/09/03 02:10:39;;;;;;;5.93;2.53;;;;;;;16.77;63.48;93851.69;4969563;28;20122;-79
2022/09/03 02:13:12;;;;;;;3.25;2.47;;;;;;;16.94;63.18;93872.78;4970822;28;20038;-79
2022/09/03 02:15:42;;;;;;;3.33;2.40;;;;;;;16.86;64.13;93886.41;4970541;28;20057;-78
2022/09/03 02:18:15;;;;;;;3.33;2.35;;;;;;;16.93;63.56;93884.66;4970277;28;20116;-80
2022/09/03 02:20:41;;;;;;;5.97;2.88;;;;;;;16.71;63.42;93828.94;4971672;28;20137;-80
2022/09/03 02:23:07;;;;;;;3.80;2.70;;;;;;;16.93;63.70;93879.28;4969069;28;20430;-78
2022/09/03 02:25:37;;;;;;;4.05;2.85;;;;;;;16.75;63.76;93848.59;4972541;28;20093;-79
2022/09/03 02:28:05;;;;;;;4.45;2.80;;;;;;;16.83;63.78;93850.28;4952387;28;20437;-80
2022/09/03 02:30:30;;;;;;;4.55;2.78;;;;;;;16.93;63.46;93887.34;4972199;28;20026;-78
2022/09/03 02:32:56;;;;;;;3.80;2.15;;;;;;;16.83;63.22;93852.19;4957659;28;20046;-78
2022/09/03 02:35:21;;;;;;;4.80;2.03;;;;;;;16.77;62.91;93836.34;4972663;28;20683;-77
2022/09/03 02:37:47;;;;;;;3.70;2.53;;;;;;;16.84;62.37;93843.78;4969056;28;20057;-78
2022/09/03 02:40:12;;;;;;;3.42;2.30;;;;;;;16.56;62.48;93808.28;4969174;28;20141;-79
2022/09/03 02:42:37;;;;;;;4.05;2.88;;;;;;;16.90;63.23;93877.31;4970501;28;20026;-78
2022/09/03 02:45:15;;;;;;;4.80;3.28;;;;;;;17.08;63.04;93883.06;4969554;28;20077;-80
2022/09/03 02:47:44;;;;;;;5.82;2.97;;;;;;;17.18;62.96;93891.38;4970718;28;20065;-78
2022/09/03 02:50:10;;;;;;;4.55;2.90;;;;;;;17.05;62.66;93879.19;4969364;28;20026;-79
2022/09/03 02:52:35;;;;;;;3.60;2.60;;;;;;;17.17;62.64;93880.97;4971724;28;20034;-78
2022/09/03 02:55:01;;;;;;;4.00;2.80;;;;;;;17.04;62.42;93896.41;4955446;28;20019;-78
2022/09/03 02:57:27;;;;;;;5.72;2.33;;;;;;;16.89;63.30;93875.75;4959718;28;20483;-80
2022/09/03 02:59:53;;;;;;;4.45;2.28;;;;;;;17.07;62.86;93887.66;4955328;28;20475;-78
2022/09/03 03:02:18;;;;;;;4.68;3.15;;;;;;;17.00;62.74;93868.69;4970026;28;20022;-78
2022/09/03 03:04:44;;;;;;;8.88;3.50;;;;;;;17.22;62.96;93888.75;4970294;28;20059;-79
2022/09/03 03:07:09;;;;;;;5.20;3.30;;;;;;;17.24;62.73;93880.34;4954071;28;20080;-80
2022/09/03 03:09:35;;;;;;;4.38;2.58;;;;;;;17.12;62.46;93847.06;4971987;28;20030;-78
2022/09/03 03:12:00;;;;;;;4.25;2.90;;;;;;;17.35;62.54;93878.66;4971471;28;20627;-79
2022/09/03 03:14:26;;;;;;;3.30;2.33;;;;;;;17.50;62.47;93888.56;4968368;28;20030;-78
2022/09/03 03:16:51;;;;;;;5.20;3.17;;;;;;;17.48;62.33;93880.06;4969638;28;20124;-78
2022/09/03 03:19:16;;;;;;;4.60;2.72;;;;;;;17.58;62.41;93891.03;4970622;28;20029;-79
2022/09/03 03:21:42;;;;;;;4.68;3.33;;;;;;;17.64;62.26;93888.06;4970502;28;20395;-77
2022/09/03 03:24:08;;;;;;;6.90;4.43;;;;;;;17.70;62.38;93892.78;4969317;28;20578;-79
2022/09/03 03:26:34;;;;;;;5.35;3.33;;;;;;;17.48;61.61;93851.28;4969979;28;20123;-79
2022/09/03 03:29:03;;;;;;;6.43;3.58;;;;;;;17.37;61.47;93852.19;4969559;28;20034;-78
2022/09/03 03:31:29;;;;;;;6.82;3.55;;;;;;;17.41;61.91;93874.53;4968142;28;20512;-79
2022/09/03 03:33:57;;;;;;;5.50;3.92;;;;;;;17.53;62.17;93885.16;4971184;28;20458;-80
2022/09/03 03:36:25;;;;;;;5.75;3.58;;;;;;;17.44;62.05;93881.91;4968578;28;20035;-78
2022/09/03 03:38:53;;;;;;;4.75;3.78;;;;;;;17.54;61.91;93881.34;4968469;28;20522;-78
2022/09/03 03:41:24;;;;;;;6.22;4.20;;;;;;;17.53;61.62;93874.41;4969638;28;20568;-79
2022/09/03 03:43:58;;;;;;;4.75;3.33;;;;;;;17.62;62.37;93891.09;4970189;28;20086;-78
2022/09/03 03:46:27;;;;;;;6.32;3.50;;;;;;;17.42;61.54;93881.47;4970715;28;20030;-78
2022/09/03 03:48:52;;;;;;;4.25;3.38;;;;;;;17.36;62.15;93874.81;4969284;28;20571;-78
2022/09/03 03:51:18;;;;;;;6.60;3.33;;;;;;;17.58;62.33;93892.94;4970667;28;20048;-79
2022/09/03 03:53:44;;;;;;;6.05;3.58;;;;;;;17.37;61.96;93879.06;4972174;28;20607;-78
2022/09/03 03:56:12;;;;;;;6.60;3.60;;;;;;;17.57;62.00;93899.44;4975077;28;20030;-77
2022/09/03 03:58:42;;;;;;;5.13;3.42;;;;;;;17.66;61.67;93908.06;4970663;28;20045;-78
2022/09/03 04:01:11;;;;;;;6.65;3.75;;;;;;;17.54;61.67;93881.34;4973925;28;20046;-81
2022/09/03 04:03:37;;;;;;;6.88;3.70;;;;;;;17.65;61.75;93892.31;4972794;28;20246;-80
2022/09/03 04:06:06;;;;;;;8.00;3.75;;;;;;;17.40;61.71;93854.19;4972219;28;20042;-81
2022/09/03 04:08:37;;;;;;;6.00;3.60;;;;;;;17.69;61.46;93890.47;4971501;28;20503;-79
2022/09/03 04:11:04;;;;;;;5.20;3.55;;;;;;;17.54;61.69;93886.72;4973602;28;20113;-82
2022/09/03 04:13:31;;;;;;;4.93;3.47;;;;;;;17.69;61.76;93885.09;4974158;28;20110;-79
2022/09/03 04:16:35;;;;;;;4.13;3.40;;;;;;;17.52;61.62;93859.41;4972023;28;20027;-81
2022/09/03 04:19:00;;;;;;;4.43;3.10;;;;;;;17.50;61.69;93862.44;4973437;28;20023;-81
2022/09/03 04:21:29;;;;;;;5.60;3.50;;;;;;;17.74;61.85;93887.50;4973096;28;20030;-81
2022/09/03 04:23:56;;;;;;;5.28;3.05;;;;;;;17.80;61.65;93897.56;4973716;28;20057;-79
2022/09/03 04:26:24;;;;;;;6.20;3.33;;;;;;;17.85;61.73;93893.81;4972861;28;20023;-81
2022/09/03 04:28:50;;;;;;;5.97;3.17;;;;;;;17.69;61.62;93885.88;4956080;28;20040;-80
2022/09/03 04:31:19;;;;;;;6.45;3.60;;;;;;;17.81;61.84;93888.38;4972149;28;20023;-81
2022/09/03 04:33:45;;;;;;;7.22;3.67;;;;;;;17.89;61.45;93903.50;4973754;28;20054;-80
2022/09/03 04:36:16;;;;;;;5.80;3.45;;;;;;;17.86;61.16;93923.06;4972485;28;20061;-80
2022/09/03 04:38:44;;;;;;;4.18;3.42;;;;;;;17.88;61.33;93920.81;4971424;28;20030;-79
2022/09/03 04:41:11;;;;;;;6.93;3.55;;;;;;;17.74;61.39;93901.72;4955972;28;20601;-79
2022/09/03 04:43:37;;;;;;;5.00;3.22;;;;;;;17.74;61.28;93904.41;4973449;28;20117;-79
2022/09/03 04:46:06;;;;;;;6.60;3.88;;;;;;;17.64;61.56;93931.09;4972576;28;20528;-82
2022/09/03 04:48:33;;;;;;;4.60;3.45;;;;;;;17.36;61.85;93910.53;4971592;28;20497;-80
2022/09/03 04:51:07;;;;;;;4.03;2.90;;;;;;;17.59;62.19;93937.53;4971610;28;20419;-81
2022/09/03 04:53:41;;;;;;;5.03;3.30;;;;;;;17.13;63.30;93945.41;4961826;28;20448;-80
2022/09/03 04:56:15;;;;;;;5.22;3.13;;;;;;;17.14;63.50;93930.06;4972360;28;20399;-80
2022/09/03 04:58:42;;;;;;;5.45;3.42;;;;;;;17.12;63.37;93943.81;4956213;28;20383;-79
2022/09/03 05:01:14;;;;;;;4.85;3.58;;;;;;;17.08;63.28;93921.44;4971930;28;20026;-79
2022/09/03 05:03:40;;;;;;;4.57;3.28;;;;;;;16.97;62.98;93896.25;4971170;28;20023;-81
2022/09/03 05:06:06;;;;;;;5.72;3.03;;;;;;;17.13;63.33;93920.41;4972467;28;20044;-80
2022/09/03 05:08:35;;;;;;;3.83;2.67;;;;;;;17.36;62.85;93956.25;4961839;28;20054;-78
2022/09/03 05:11:02;;;;;;;5.18;3.20;;;;;;;17.21;62.54;93942.88;4954895;28;20158;-81
2022/09/03 05:13:27;;;;;;;5.97;3.72;;;;;;;16.78;63.27;93890.84;4972252;28;20034;-78
2022/09/03 05:16:01;;;;;;;5.78;3.83;;;;;;;16.64;64.50;93909.31;4971113;28;20633;-78
2022/09/03 05:18:27;;;;;;;5.47;3.40;;;;;;;16.87;64.76;93947.84;4972879;28;20502;-79
2022/09/03 05:21:04;;;;;;;5.85;2.90;;;;;;;16.96;64.40;93951.13;4972381;28;20603;-79
2022/09/03 05:23:30;;;;;;;4.53;2.75;;;;;;;16.72;64.85;93940.59;4972865;28;20081;-80
2022/09/03 05:26:02;;;;;;;4.57;3.20;;;;;;;16.79;65.03;93935.38;4970570;28;20109;-79
2022/09/03 05:28:29;;;;;;;5.95;3.65;;;;;;;16.43;65.39;93935.69;4957051;28;20035;-79
2022/09/03 05:31:03;;;;;;;5.60;3.38;;;;;;;16.48;65.52;93908.53;4971910;28;20031;-78
2022/09/03 05:33:28;;;;;;;4.82;2.97;;;;;;;16.39;65.56;93932.09;4953245;28;20046;-81
2022/09/03 05:36:00;;;;;;;3.65;2.22;;;;;;;16.41;66.41;93954.03;4971781;28;20034;-80
2022/09/03 05:38:26;;;;;;;5.10;3.05;;;;;;;16.62;65.71;93954.56;4970244;28;20149;-79
2022/09/03 05:40:51;;;;;;;3.75;2.92;;;;;;;16.76;64.94;93962.94;4970285;28;20030;-79
2022/09/03 05:43:17;;;;;;;3.90;2.40;;;;;;;16.71;64.35;93936.34;4970495;28;20026;-80
2022/09/03 05:45:42;;;;;;;4.25;2.65;;;;;;;16.64;63.50;93930.78;4972632;28;20088;-79
2022/09/03 05:48:07;;;;;;;5.55;2.88;;;;;;;16.74;63.91;93962.50;4960799;28;20573;-78
2022/09/03 05:50:33;;;;;;;5.03;3.38;;;;;;;16.67;64.52;93968.47;4954550;28;20104;-80
2022/09/03 05:52:59;;;;;;;3.70;2.53;;;;;;;16.49;64.64;93964.59;4969601;28;20044;-80
2022/09/03 05:55:24;;;;;;;4.93;3.03;;;;;;;16.55;64.46;93957.06;4969636;28;20046;-81
2022/09/03 05:57:52;;;;;;;3.65;2.72;;;;;;;16.36;65.21;93938.16;4971824;28;20585;-80
2022/09/03 06:00:18;;;;;;;3.92;2.60;;;;;;;16.27;65.37;93971.31;4971080;28;20053;-79
2022/09/03 06:02:50;;;;;;;5.95;2.97;;;;;;;16.19;64.88;93940.03;4960486;28;20062;-79
2022/09/03 06:05:16;;;;;;;3.85;2.72;;;;;;;16.09;65.41;93929.81;4970690;28;20664;-80
2022/09/03 06:07:41;;;;;;;4.70;2.80;;;;;;;16.13;65.51;93925.31;4970055;28;20038;-78
2022/09/03 06:10:07;;;;;;;3.70;2.50;;;;;;;16.22;64.57;93965.41;4971406;28;20030;-80
2022/09/03 06:12:32;;;;;;;3.83;2.05;;;;;;;16.14;65.31;93988.56;4969247;28;20030;-79
2022/09/03 06:14:58;;;;;;;3.50;2.30;;;;;;;15.69;66.07;93916.50;4970279;28;20026;-79
2022/09/03 06:17:23;;;;;;;5.97;3.22;;;;;;;16.14;65.90;93963.66;4970630;28;20054;-82
2022/09/03 06:19:49;;;;;;;4.38;2.45;;;;;;;16.12;65.67;93944.44;4971627;28;20510;-79
2022/09/03 06:22:15;;;;;;;5.22;2.90;;;;;;;16.33;65.54;93958.41;4970461;28;20108;-78
2022/09/03 06:24:40;;;;;;;3.63;2.55;;;;;;;16.52;64.91;93984.59;4970317;28;20553;-79
2022/09/03 06:27:07;;;;;;;4.82;2.70;;;;;;;16.22;65.31;93976.91;4971562;28;20034;-79
2022/09/03 06:29:34;;;;;;;4.88;2.80;;;;;;;16.38;64.64;93990.38;4969434;28;20084;-80
2022/09/03 06:32:03;;;;;;;3.70;2.50;;;;;;;16.51;64.13;93988.41;4970320;28;20335;-79
2022/09/03 06:34:29;;;;;;;3.40;2.42;;;;;;;16.33;64.72;93994.09;4959946;28;20479;-79
2022/09/03 06:36:55;;;;;;;3.58;2.65;;;;;;;16.50;64.21;93995.69;4970769;28;20029;-79
2022/09/03 06:39:20;;;;;;;3.75;2.20;;;;;;;16.30;63.72;93957.22;4971464;28;20387;-80
2022/09/03 06:41:47;;;;;;;4.80;2.80;;;;;;;16.39;63.93;93977.72;4969994;28;20483;-79
2022/09/03 06:44:12;;;;;;;3.50;2.95;;;;;;;16.54;64.08;93995.75;4970868;28;20026;-81
2022/09/03 06:46:41;;;;;;;3.67;2.53;;;;;;;16.20;64.11;93932.75;4968141;28;20045;-80
2022/09/03 06:49:07;;;;;;;4.07;2.60;;;;;;;16.73;64.00;93995.84;4959742;28;20390;-80
2022/09/03 06:51:33;;;;;;;4.28;3.40;;;;;;;16.66;64.00;93977.69;4959078;28;20026;-79
2022/09/03 06:54:07;;;;;;;4.78;2.85;;;;;;;16.43;63.63;93955.22;4970075;28;20033;-79
2022/09/03 06:56:34;;;;;;;4.30;2.75;;;;;;;16.69;64.01;93984.25;4970536;28;20034;-82
2022/09/03 06:59:10;;;;;;;8.55;3.15;;;;;;;16.81;64.04;93996.81;4970377;28;20512;-80
2022/09/03 07:01:39;;;;;;;3.75;2.72;;;;;;;16.75;63.42;94001.66;4969222;28;20030;-79
2022/09/03 07:04:06;;;;;;;4.55;3.58;;;;;;;16.61;63.77;93987.88;4971340;28;20838;-80
2022/09/03 07:06:38;;;;;;;3.30;2.50;;;;;;;16.30;62.90;93926.88;4970546;28;20041;-79
2022/09/03 07:09:07;;;;;;;4.20;3.00;;;;;;;16.46;64.03;93975.25;4971801;28;20034;-80
2022/09/03 07:11:34;;;;;;;4.43;2.95;;;;;;;16.70;64.45;94002.69;4959078;28;20022;-78
2022/09/03 07:14:02;;;;;;;6.32;3.72;;;;;;;16.60;64.01;93992.47;4970008;28;20373;-80
2022/09/03 07:16:31;;;;;;;5.88;4.07;;;;;;;16.66;64.46;94011.81;4970117;28;20057;-79
2022/09/03 07:18:57;;;;;;;5.97;3.75;;;;;;;16.64;63.99;93987.19;4971353;28;20137;-79
2022/09/03 07:21:25;;;;;;;4.72;3.45;;;;;;;16.84;63.72;94004.94;4969038;28;20454;-79
2022/09/03 07:23:52;;;;;;;4.75;2.85;;;;;;;16.99;63.35;94011.44;4970174;28;20453;-79
2022/09/03 07:26:23;;;;;;;5.63;3.65;;;;;;;17.04;63.11;94014.66;4969190;28;20497;-79
2022/09/03 07:28:49;;;;;;;3.30;2.72;;;;;;;17.05;63.34;94015.44;4974862;28;20032;-80
2022/09/03 07:31:18;;;;;;;4.43;3.53;;;;;;;16.92;63.29;94024.69;4973044;28;20022;-80
2022/09/03 07:33:43;;;;;;;4.68;3.53;;;;;;;16.85;63.34;93981.56;4974260;28;20054;-78
2022/09/03 07:36:13;;;;;;;5.40;3.60;;;;;;;16.94;64.16;94023.22;4973345;28;20030;-80
2022/09/03 07:38:39;;;;;;;4.55;3.00;;;;;;;17.01;64.37;94026.06;4973827;28;20035;-78
2022/09/03 07:41:07;;;;;;;3.80;2.47;;;;;;;16.93;63.38;94005.53;4974503;28;20216;-80
2022/09/03 07:43:35;;;;;;;2.95;2.45;;;;;;;16.95;62.47;94011.38;4957919;28;20018;-79
2022/09/03 07:46:01;;;;;;;4.22;2.90;;;;;;;16.91;62.43;93999.75;4963277;28;20038;-79
2022/09/03 07:48:26;;;;;;;4.65;3.17;;;;;;;17.18;62.03;94025.75;4953276;28;20033;-80
2022/09/03 07:50:58;;;;;;;3.67;2.72;;;;;;;17.24;62.09;94018.19;4974813;28;20022;-79
2022/09/03 07:53:24;;;;;;;3.70;2.75;;;;;;;17.24;61.64;94026.25;4961748;28;20026;-80
2022/09/03 07:55:50;;;;;;;5.32;3.58;;;;;;;17.33;62.02;94028.75;4973971;28;20046;-79
2022/09/03 07:58:16;;;;;;;5.22;3.35;;;;;;;17.01;62.18;93996.50;4974317;28;20029;-80
2022/09/03 08:00:42;;;;;;;3.90;3.05;;;;;;;17.07;63.16;94038.13;4973751;28;20748;-79
2022/09/03 08:03:07;;;;;;;4.18;3.25;;;;;;;16.92;63.37;93984.38;4973534;28;20033;-79
2022/09/03 08:05:35;;;;;;;4.63;3.08;;;;;;;17.31;62.50;94014.88;4972170;28;20558;-80
2022/09/03 08:08:05;;;;;;;4.15;2.90;;;;;;;17.34;62.11;94031.09;4974390;28;20034;-79
2022/09/03 08:10:34;;;;;;;4.35;3.15;;;;;;;17.39;61.35;94038.91;4957418;28;20066;-80
2022/09/03 08:13:00;;;;;;;3.35;2.83;;;;;;;17.13;61.47;94012.56;4964193;28;20026;-78
2022/09/03 08:15:25;;;;;;;5.38;3.45;;;;;;;17.31;61.61;94012.97;4971636;28;20390;-80
2022/09/03 08:17:51;;;;;;;5.32;3.58;;;;;;;17.59;61.06;94040.50;4973525;28;20088;-79
2022/09/03 08:20:17;;;;;;;5.32;3.42;;;;;;;17.54;61.47;94040.00;4972952;28;20450;-80
2022/09/03 08:22:43;;;;;;;3.90;3.45;;;;;;;17.73;61.16;94041.94;4971354;28;20023;-78
2022/09/03 08:25:08;;;;;;;6.22;3.97;;;;;;;17.50;61.32;94025.69;4974131;28;20434;-79
2022/09/03 08:27:34;;;;;;;4.47;2.97;;;;;;;17.61;60.55;94021.31;4973578;28;20033;-79
2022/09/03 08:30:00;;;;;;;4.50;3.67;;;;;;;17.34;60.14;93976.56;4971832;28;20062;-79
2022/09/03 08:32:25;;;;;;;3.78;2.95;;;;;;;17.77;60.41;94027.41;4971556;28;20050;-81
2022/09/03 08:34:51;;;;;;;5.53;3.88;;;;;;;17.88;59.76;94033.81;4971929;28;20023;-78
2022/09/03 08:37:17;;;;;;;4.88;3.85;;;;;;;17.94;59.82;94027.03;4972251;28;20054;-78
2022/09/03 08:39:43;;;;;;;6.63;3.25;;;;;;;17.98;59.65;94033.28;4971144;28;20038;-78
2022/09/03 08:42:24;;;;;;;3.85;2.80;;;;;;;18.12;59.14;94034.69;4971478;28;20021;-79
2022/09/03 08:44:49;;;;;;;3.92;2.97;;;;;;;18.10;58.84;94034.25;4973975;28;20038;-79
2022/09/03 08:47:33;;;;;;;5.32;3.63;;;;;;;18.27;59.13;94034.59;4973077;28;20065;-79
2022/09/03 08:50:10;;;;;;;4.78;3.25;;;;;;;18.12;57.45;94005.06;4973494;28;20500;-79
2022/09/03 08:52:47;;;;;;;5.82;3.90;;;;;;;18.36;58.02;94032.47;4955964;28;20059;-79
2022/09/03 08:55:25;;;;;;;5.72;3.47;;;;;;;18.43;57.57;94039.91;4955140;28;20447;-82
2022/09/03 08:58:07;;;;;;;5.65;4.18;;;;;;;18.19;57.34;94010.59;4973084;28;20062;-79
2022/09/03 09:01:04;;;;;;;5.57;3.83;;;;;;;18.04;58.48;93980.72;4972366;28;20511;-80
2022/09/03 09:03:54;;;;;;;3.92;3.30;;;;;;;18.48;58.34;94038.84;4932382;28;20069;-81
2022/09/03 09:06:22;;;;;;;5.35;4.00;;;;;;;18.52;58.44;94039.69;4955141;28;20037;-81
2022/09/03 09:09:13;;;;;;;4.45;3.05;;;;;;;18.69;57.85;94047.28;4971577;28;20361;-82
2022/09/03 09:12:04;;;;;;;5.35;3.90;;;;;;;18.78;57.46;94035.16;4972797;28;20114;-81
2022/09/03 09:15:07;;;;;;;4.30;3.78;;;;;;;18.86;57.29;94047.63;4947199;28;20053;-80
2022/09/03 09:17:43;;;;;;;5.00;3.58;;;;;;;18.76;55.98;94040.16;4956740;28;20022;-79
2022/09/03 09:20:09;;;;;;;5.00;4.10;;;;;;;18.80;56.74;94046.38;4971312;28;20030;-81
2022/09/03 09:22:42;;;;;;;4.80;3.47;;;;;;;18.72;56.87;94033.94;4955887;28;20027;-77
2022/09/03 09:25:13;;;;;;;4.65;3.80;;;;;;;18.79;57.08;94050.19;4973443;28;20029;-80
2022/09/03 09:27:57;;;;;;;4.35;3.42;;;;;;;18.83;57.01;94051.03;4971022;28;20026;-80
2022/09/03 09:30:23;;;;;;;4.97;3.77;;;;;;;18.88;57.00;94044.56;4955703;28;20026;-80
2022/09/03 09:32:48;;;;;;;4.65;3.53;;;;;;;18.87;56.18;94030.31;4969921;28;20502;-82
2022/09/03 09:35:15;;;;;;;5.85;3.35;;;;;;;18.65;55.99;94008.72;4971233;28;20026;-79
2022/09/03 09:37:53;;;;;;;4.30;3.55;;;;;;;18.78;56.53;94026.28;4973236;28;20546;-81
2022/09/03 09:40:40;;;;;;;4.10;3.53;;;;;;;19.06;56.89;94047.56;4971266;28;20073;-80
2022/09/03 09:43:09;;;;;;;4.15;3.28;;;;;;;19.05;56.17;94046.78;4955976;28;20507;-80
2022/09/03 09:45:36;;;;;;;4.78;3.70;;;;;;;19.02;56.96;94046.75;4971717;28;20038;-79
2022/09/03 09:48:06;;;;;;;5.50;3.90;;;;;;;19.03;56.57;94043.66;4972977;28;20034;-81
2022/09/03 09:50:32;;;;;;;4.88;4.07;;;;;;;19.09;56.36;94046.84;4954262;28;20034;-77
2022/09/03 09:53:13;;;;;;;3.30;2.80;;;;;;;19.22;56.42;94045.50;4971112;28;20034;-77
2022/09/03 09:55:56;;;;;;;4.68;3.50;;;;;;;19.06;55.40;94015.22;4954833;28;20467;-77
2022/09/03 09:58:24;;;;;;;4.53;3.33;;;;;;;19.25;56.54;94026.69;4956334;28;20719;-77
2022/09/03 10:01:25;;;;;;;4.22;3.28;;;;;;;19.25;56.67;94034.78;4971934;28;20153;-79
2022/09/03 10:03:55;;;;;;;4.75;3.35;;;;;;;19.41;55.31;94058.13;4971090;28;20049;-80
2022/09/03 10:09:22;;;;;;;6.15;3.85;;;;;;;19.17;57.17;94032.31;4970087;28;20110;-79
2022/09/03 10:12:18;;;;;;;5.72;3.28;;;;;;;19.35;56.55;94043.41;4970660;28;20111;-77
2022/09/03 10:14:52;;;;;;;5.28;3.90;;;;;;;19.25;56.40;94040.19;4954191;28;20042;-81
2022/09/03 10:17:34;;;;;;;4.22;3.65;;;;;;;19.21;56.80;94033.94;4971334;28;20026;-80
2022/09/03 10:20:26;;;;;;;4.75;4.18;;;;;;;19.16;56.30;94041.56;4969692;28;20030;-78
2022/09/03 10:22:57;;;;;;;5.28;3.63;;;;;;;19.20;56.85;94037.00;4952698;28;20144;-80
2022/09/03 10:25:28;;;;;;;4.00;3.22;;;;;;;18.99;56.73;93999.72;4955520;28;20860;-81
2022/09/03 10:27:55;;;;;;;5.75;4.53;;;;;;;19.13;56.37;94021.50;4951873;28;20026;-77
2022/09/03 10:30:21;;;;;;;4.97;4.13;;;;;;;19.29;56.77;94024.81;4971347;28;20034;-77
2022/09/03 10:33:04;;;;;;;4.78;3.75;;;;;;;19.42;57.02;94036.19;4969665;28;20053;-78
2022/09/03 10:35:32;;;;;;;4.38;3.83;;;;;;;19.45;56.65;94032.03;4972029;28;20569;-78
2022/09/03 10:38:19;;;;;;;5.82;4.38;;;;;;;19.54;56.28;94030.63;4971008;28;20117;-81
2022/09/03 10:41:03;;;;;;;4.32;3.63;;;;;;;19.46;55.63;94028.94;4969930;28;20041;-81
2022/09/03 10:43:50;;;;;;;5.30;3.90;;;;;;;19.45;56.86;94032.81;4952113;28;20034;-79
2022/09/03 10:46:25;;;;;;;4.85;3.33;;;;;;;19.31;56.34;94011.00;4969677;28;20022;-79
2022/09/03 10:48:59;;;;;;;4.75;3.65;;;;;;;19.52;55.42;94040.19;4970948;28;20034;-81
2022/09/03 10:51:43;;;;;;;4.43;3.25;;;;;;;19.49;55.55;94033.63;4969511;28;20042;-80
2022/09/03 10:54:31;;;;;;;5.85;3.67;;;;;;;19.52;55.57;94032.88;4970263;28;20034;-79
2022/09/03 10:57:53;;;;;;;4.47;3.00;;;;;;;19.51;54.91;94025.94;4970281;28;20122;-80
2022/09/03 11:00:19;;;;;;;4.97;3.40;;;;;;;19.29;55.06;93991.69;4947674;28;20461;-80
2022/09/03 11:02:57;;;;;;;3.88;2.75;;;;;;;19.42;56.57;94033.47;4970197;28;20560;-78
2022/09/03 11:05:30;;;;;;;4.43;3.00;;;;;;;19.45;55.75;94027.41;4970323;28;20030;-79
2022/09/03 11:08:13;;;;;;;4.40;3.13;;;;;;;19.64;54.92;94038.09;4969537;28;20038;-79
2022/09/03 11:10:54;;;;;;;3.28;2.60;;;;;;;19.48;54.83;94015.88;4952211;28;20498;-79
2022/09/03 11:13:53;;;;;;;4.40;3.15;;;;;;;19.55;55.05;94017.91;4969249;28;20031;-79
2022/09/03 11:16:30;;;;;;;5.28;3.85;;;;;;;19.75;55.24;94030.09;4929214;28;20045;-80
2022/09/03 11:19:10;;;;;;;4.72;3.60;;;;;;;19.71;54.19;94021.19;4971070;28;20651;-79
2022/09/03 11:21:38;;;;;;;3.85;2.70;;;;;;;19.85;54.08;94023.31;4968692;28;20423;-79
2022/09/03 11:24:09;;;;;;;4.15;2.88;;;;;;;19.75;53.60;94009.31;4970620;28;20019;-80
2022/09/03 11:26:35;;;;;;;2.90;2.42;;;;;;;19.91;52.91;94027.22;4967973;28;20320;-81
2022/09/03 11:29:12;;;;;;;4.38;2.90;;;;;;;19.78;53.25;94012.44;4969954;28;20343;-79
2022/09/03 11:31:48;;;;;;;4.30;3.28;;;;;;;19.83;53.56;94004.78;4968578;28;20038;-80
2022/09/03 11:34:26;;;;;;;5.07;3.33;;;;;;;20.16;53.75;94025.63;4969842;28;20046;-80
2022/09/03 11:37:03;;;;;;;5.85;3.03;;;;;;;19.99;53.21;93986.50;4970378;28;20564;-79
2022/09/03 11:39:31;;;;;;;3.78;3.25;;;;;;;20.37;52.69;94027.81;4968693;28;20039;-78
2022/09/03 11:42:03;;;;;;;4.55;2.75;;;;;;;20.43;52.46;94026.34;4953710;28;20030;-79
2022/09/03 11:44:42;;;;;;;5.28;3.67;;;;;;;20.32;51.94;94020.03;4954904;28;20535;-80
2022/09/03 11:47:18;;;;;;;4.10;2.70;;;;;;;20.23;51.95;94017.63;4959113;28;20030;-79
2022/09/03 11:49:50;;;;;;;2.95;2.03;;;;;;;19.84;50.57;93973.97;4969128;28;20045;-79
2022/09/03 11:52:39;;;;;;;2.90;2.42;;;;;;;20.12;50.76;94008.59;4969150;28;20026;-79
2022/09/03 11:55:05;;;;;;;2.72;2.20;;;;;;;20.08;51.32;94013.97;4960779;28;20026;-79
2022/09/03 11:57:32;;;;;;;3.38;2.30;;;;;;;20.06;51.67;94034.38;4968302;28;20359;-79
2022/09/03 12:00:21;;;;;;;3.70;2.25;;;;;;;19.94;50.58;94015.72;4970565;28;20023;-80
2022/09/03 12:02:55;;;;;;;2.90;1.98;;;;;;;19.89;50.44;93999.84;4968829;28;20019;-81